Terminal Aerodrome Forecast
Issued by NWS

Home | Current Version | Previous Version | Text Only | Print | Product List | Glossary Off
Versions: 1 2 3 4 5 6 7 8 9 10 11 12 13 14 15 16 17 18 19 20 21 22 23 24 25 26 27 28 29 30 31 32

000
FTUS43 KBIS 271200 AAA
TAFMOT
TAF AMD
KMOT 271223Z 2712/2812 16010KT 3SM -SN BKN030
      TEMPO 2712/2714 1SM -SN BKN020
     FM271600 18011G18KT P6SM OVC035
     FM272000 31011G18KT P6SM BKN080=

USA.gov is the U.S. government's official web portal to all federal, state and local government web resources and services.